sensor_id;sensor_type;location;lat;lon;timestamp;pressure;altitude;pressure_sealevel;temperature;humidity
18987;BME280;9627;59.236;18.142;2023-01-29T00:01:06;100710.38;;;-0.90;100.00
18987;BME280;9627;59.236;18.142;2023-01-29T00:03:34;100715.34;;;-0.87;100.00
18987;BME280;9627;59.236;18.142;2023-01-29T00:06:03;100704.91;;;-0.87;100.00
18987;BME280;9627;59.236;18.142;2023-01-29T00:08:32;100700.75;;;-0.89;100.00
18987;BME280;9627;59.236;18.142;2023-01-29T00:10:59;100700.31;;;-0.83;100.00
18987;BME280;9627;59.236;18.142;2023-01-29T00:13:26;100696.78;;;-0.82;100.00
18987;BME280;9627;59.236;18.142;2023-01-29T00:15:53;100699.50;;;-0.84;100.00
18987;BME280;9627;59.236;18.142;2023-01-29T00:18:20;100697.69;;;-0.83;100.00
18987;BME280;9627;59.236;18.142;2023-01-29T00:20:49;100692.47;;;-0.83;100.00
18987;BME280;9627;59.236;18.142;2023-01-29T00:23:16;100694.28;;;-0.84;100.00
18987;BME280;9627;59.236;18.142;2023-01-29T00:25:43;100702.19;;;-0.85;100.00
18987;BME280;9627;59.236;18.142;2023-01-29T00:28:10;100708.47;;;-0.88;100.00
18987;BME280;9627;59.236;18.142;2023-01-29T00:30:37;100710.84;;;-0.85;100.00
18987;BME280;9627;59.236;18.142;2023-01-29T00:33:04;100710.97;;;-0.86;100.00
18987;BME280;9627;59.236;18.142;2023-01-29T00:35:32;100710.38;;;-0.90;100.00
18987;BME280;9627;59.236;18.142;2023-01-29T00:38:00;100712.25;;;-0.92;100.00
18987;BME280;9627;59.236;18.142;2023-01-29T00:40:27;100706.06;;;-0.91;100.00
18987;BME280;9627;59.236;18.142;2023-01-29T00:43:15;100699.69;;;-0.87;100.00
18987;BME280;9627;59.236;18.142;2023-01-29T00:46:07;100690.13;;;-0.86;100.00
18987;BME280;9627;59.236;18.142;2023-01-29T00:48:34;100694.59;;;-0.88;100.00
18987;BME280;9627;59.236;18.142;2023-01-29T00:51:02;100692.72;;;-0.86;100.00
18987;BME280;9627;59.236;18.142;2023-01-29T00:53:31;100699.22;;;-0.92;100.00
18987;BME280;9627;59.236;18.142;2023-01-29T00:55:58;100694.13;;;-0.93;100.00
18987;BME280;9627;59.236;18.142;2023-01-29T00:58:25;100703.81;;;-0.96;100.00
18987;BME280;9627;59.236;18.142;2023-01-29T01:00:58;100707.25;;;-0.95;100.00
18987;BME280;9627;59.236;18.142;2023-01-29T01:03:26;100704.53;;;-0.93;100.00
18987;BME280;9627;59.236;18.142;2023-01-29T01:06:01;100709.13;;;-0.97;100.00
18987;BME280;9627;59.236;18.142;2023-01-29T01:08:28;100705.72;;;-0.98;100.00
18987;BME280;9627;59.236;18.142;2023-01-29T01:11:13;100695.59;;;-1.02;100.00
18987;BME280;9627;59.236;18.142;2023-01-29T01:13:40;100696.34;;;-1.00;100.00
18987;BME280;9627;59.236;18.142;2023-01-29T01:16:08;100700.59;;;-0.99;100.00
18987;BME280;9627;59.236;18.142;2023-01-29T01:18:35;100703.72;;;-0.94;100.00
18987;BME280;9627;59.236;18.142;2023-01-29T01:21:02;100703.09;;;-0.98;100.00
18987;BME280;9627;59.236;18.142;2023-01-29T01:23:29;100693.72;;;-1.00;100.00
18987;BME280;9627;59.236;18.142;2023-01-29T01:25:56;100690.53;;;-1.04;100.00
18987;BME280;9627;59.236;18.142;2023-01-29T01:28:25;100692.03;;;-1.01;100.00
18987;BME280;9627;59.236;18.142;2023-01-29T01:30:52;100677.38;;;-1.02;100.00
18987;BME280;9627;59.236;18.142;2023-01-29T01:33:19;100678.41;;;-1.05;100.00
18987;BME280;9627;59.236;18.142;2023-01-29T01:35:46;100683.63;;;-1.05;100.00
18987;BME280;9627;59.236;18.142;2023-01-29T01:38:13;100663.03;;;-1.08;100.00
18987;BME280;9627;59.236;18.142;2023-01-29T01:40:42;100660.84;;;-1.14;100.00
18987;BME280;9627;59.236;18.142;2023-01-29T01:43:09;100654.94;;;-1.16;100.00
18987;BME280;9627;59.236;18.142;2023-01-29T01:45:38;100664.41;;;-1.15;100.00
18987;BME280;9627;59.236;18.142;2023-01-29T01:48:07;100659.22;;;-1.15;100.00
18987;BME280;9627;59.236;18.142;2023-01-29T01:50:38;100655.88;;;-1.17;100.00
18987;BME280;9627;59.236;18.142;2023-01-29T01:53:08;100660.50;;;-1.20;100.00
18987;BME280;9627;59.236;18.142;2023-01-29T01:55:38;100656.19;;;-1.21;100.00
18987;BME280;9627;59.236;18.142;2023-01-29T01:58:10;100647.91;;;-1.26;100.00
18987;BME280;9627;59.236;18.142;2023-01-29T02:00:39;100652.75;;;-1.22;100.00
18987;BME280;9627;59.236;18.142;2023-01-29T02:03:06;100638.28;;;-1.26;100.00
18987;BME280;9627;59.236;18.142;2023-01-29T02:05:52;100629.16;;;-1.31;100.00
18987;BME280;9627;59.236;18.142;2023-01-29T02:08:38;100627.00;;;-1.37;100.00
18987;BME280;9627;59.236;18.142;2023-01-29T02:11:25;100629.09;;;-1.42;100.00
18987;BME280;9627;59.236;18.142;2023-01-29T02:13:52;100623.06;;;-1.43;100.00
18987;BME280;9627;59.236;18.142;2023-01-29T02:16:21;100622.00;;;-1.40;100.00
18987;BME280;9627;59.236;18.142;2023-01-29T02:18:48;100605.22;;;-1.36;100.00
18987;BME280;9627;59.236;18.142;2023-01-29T02:21:24;100613.28;;;-1.39;100.00
18987;BME280;9627;59.236;18.142;2023-01-29T02:24:17;100601.41;;;-1.43;100.00
18987;BME280;9627;59.236;18.142;2023-01-29T02:26:49;100595.38;;;-1.44;100.00
18987;BME280;9627;59.236;18.142;2023-01-29T02:29:22;100603.28;;;-1.45;100.00
18987;BME280;9627;59.236;18.142;2023-01-29T02:31:59;100593.50;;;-1.42;100.00
18987;BME280;9627;59.236;18.142;2023-01-29T02:34:32;100588.16;;;-1.40;100.00
18987;BME280;9627;59.236;18.142;2023-01-29T02:37:19;100585.31;;;-1.37;100.00
18987;BME280;9627;59.236;18.142;2023-01-29T02:39:53;100573.59;;;-1.43;100.00
18987;BME280;9627;59.236;18.142;2023-01-29T02:42:26;100572.78;;;-1.43;100.00
18987;BME280;9627;59.236;18.142;2023-01-29T02:44:57;100568.28;;;-1.41;100.00
18987;BME280;9627;59.236;18.142;2023-01-29T02:47:27;100560.56;;;-1.43;100.00
18987;BME280;9627;59.236;18.142;2023-01-29T02:49:59;100552.19;;;-1.35;100.00
18987;BME280;9627;59.236;18.142;2023-01-29T02:52:31;100547.22;;;-1.38;100.00
18987;BME280;9627;59.236;18.142;2023-01-29T02:55:03;100552.31;;;-1.37;100.00
18987;BME280;9627;59.236;18.142;2023-01-29T02:57:33;100550.66;;;-1.38;100.00
18987;BME280;9627;59.236;18.142;2023-01-29T03:00:04;100541.78;;;-1.35;100.00
18987;BME280;9627;59.236;18.142;2023-01-29T03:02:34;100536.56;;;-1.35;100.00
18987;BME280;9627;59.236;18.142;2023-01-29T03:05:05;100534.09;;;-1.37;100.00
18987;BME280;9627;59.236;18.142;2023-01-29T03:07:35;100516.22;;;-1.41;100.00
18987;BME280;9627;59.236;18.142;2023-01-29T03:10:11;100525.91;;;-1.43;100.00
18987;BME280;9627;59.236;18.142;2023-01-29T03:12:39;100514.06;;;-1.47;100.00
18987;BME280;9627;59.236;18.142;2023-01-29T03:15:10;100505.41;;;-1.48;100.00
18987;BME280;9627;59.236;18.142;2023-01-29T03:17:44;100498.66;;;-1.50;100.00
18987;BME280;9627;59.236;18.142;2023-01-29T03:20:14;100489.19;;;-1.51;100.00
18987;BME280;9627;59.236;18.142;2023-01-29T03:22:43;100489.31;;;-1.53;100.00
18987;BME280;9627;59.236;18.142;2023-01-29T03:25:11;100495.31;;;-1.52;100.00
18987;BME280;9627;59.236;18.142;2023-01-29T03:27:57;100499.94;;;-1.56;100.00
18987;BME280;9627;59.236;18.142;2023-01-29T03:30:43;100501.72;;;-1.56;100.00
18987;BME280;9627;59.236;18.142;2023-01-29T03:33:29;100499.47;;;-1.50;100.00
18987;BME280;9627;59.236;18.142;2023-01-29T03:35:58;100502.81;;;-1.48;100.00
18987;BME280;9627;59.236;18.142;2023-01-29T03:38:27;100506.44;;;-1.50;100.00
18987;BME280;9627;59.236;18.142;2023-01-29T03:40:57;100509.19;;;-1.52;100.00
18987;BME280;9627;59.236;18.142;2023-01-29T03:43:27;100510.63;;;-1.48;100.00
18987;BME280;9627;59.236;18.142;2023-01-29T03:46:01;100505.41;;;-1.48;100.00
18987;BME280;9627;59.236;18.142;2023-01-29T03:48:30;100506.38;;;-1.49;100.00
18987;BME280;9627;59.236;18.142;2023-01-29T03:51:00;100497.13;;;-1.53;100.00
18987;BME280;9627;59.236;18.142;2023-01-29T03:53:35;100493.94;;;-1.45;100.00
18987;BME280;9627;59.236;18.142;2023-01-29T03:56:10;100494.31;;;-1.39;100.00
18987;BME280;9627;59.236;18.142;2023-01-29T03:58:41;100489.38;;;-1.31;100.00
18987;BME280;9627;59.236;18.142;2023-01-29T04:01:13;100485.34;;;-1.24;100.00
18987;BME280;9627;59.236;18.142;2023-01-29T04:03:42;100481.34;;;-1.17;100.00
18987;BME280;9627;59.236;18.142;2023-01-29T04:06:12;100481.13;;;-1.14;100.00
18987;BME280;9627;59.236;18.142;2023-01-29T04:08:44;100485.03;;;-1.08;100.00
18987;BME280;9627;59.236;18.142;2023-01-29T04:11:14;100487.88;;;-1.00;100.00
18987;BME280;9627;59.236;18.142;2023-01-29T04:13:42;100478.19;;;-0.98;100.00
18987;BME280;9627;59.236;18.142;2023-01-29T04:16:13;100490.50;;;-1.00;100.00
18987;BME280;9627;59.236;18.142;2023-01-29T04:18:43;100478.19;;;-0.98;100.00
18987;BME280;9627;59.236;18.142;2023-01-29T04:21:10;100469.41;;;-0.97;100.00
18987;BME280;9627;59.236;18.142;2023-01-29T04:23:37;100468.47;;;-0.96;100.00
18987;BME280;9627;59.236;18.142;2023-01-29T04:26:10;100463.97;;;-0.94;100.00
18987;BME280;9627;59.236;18.142;2023-01-29T04:28:44;100466.47;;;-0.93;100.00
18987;BME280;9627;59.236;18.142;2023-01-29T04:31:16;100466.59;;;-0.94;100.00
18987;BME280;9627;59.236;18.142;2023-01-29T04:33:46;100460.41;;;-0.93;100.00
18987;BME280;9627;59.236;18.142;2023-01-29T04:36:23;100460.41;;;-0.93;100.00
18987;BME280;9627;59.236;18.142;2023-01-29T04:38:56;100455.19;;;-0.93;100.00
18987;BME280;9627;59.236;18.142;2023-01-29T04:41:26;100458.53;;;-0.91;100.00
18987;BME280;9627;59.236;18.142;2023-01-29T04:43:57;100451.41;;;-0.89;100.00
18987;BME280;9627;59.236;18.142;2023-01-29T04:46:28;100449.53;;;-0.87;100.00
18987;BME280;9627;59.236;18.142;2023-01-29T04:49:03;100452.13;;;-0.87;100.00
18987;BME280;9627;59.236;18.142;2023-01-29T04:51:34;100452.13;;;-0.87;100.00
18987;BME280;9627;59.236;18.142;2023-01-29T04:54:07;100450.81;;;-0.81;100.00
18987;BME280;9627;59.236;18.142;2023-01-29T04:56:39;100440.28;;;-0.80;100.00
18987;BME280;9627;59.236;18.142;2023-01-29T04:59:10;100437.78;;;-0.81;100.00
18987;BME280;9627;59.236;18.142;2023-01-29T05:01:40;100427.38;;;-0.81;100.00
18987;BME280;9627;59.236;18.142;2023-01-29T05:04:08;100429.13;;;-0.82;100.00
18987;BME280;9627;59.236;18.142;2023-01-29T05:06:36;100421.31;;;-0.82;100.00
18987;BME280;9627;59.236;18.142;2023-01-29T05:09:04;100410.88;;;-0.82;100.00
18987;BME280;9627;59.236;18.142;2023-01-29T05:11:33;100404.88;;;-0.82;100.00
18987;BME280;9627;59.236;18.142;2023-01-29T05:14:01;100395.25;;;-0.82;100.00
18987;BME280;9627;59.236;18.142;2023-01-29T05:16:30;100383.44;;;-0.86;100.00
18987;BME280;9627;59.236;18.142;2023-01-29T05:19:07;100375.72;;;-0.87;100.00
18987;BME280;9627;59.236;18.142;2023-01-29T05:21:34;100367.31;;;-0.91;100.00
18987;BME280;9627;59.236;18.142;2023-01-29T05:24:05;100358.31;;;-0.87;100.00
18987;BME280;9627;59.236;18.142;2023-01-29T05:26:32;100351.47;;;-0.88;100.00
18987;BME280;9627;59.236;18.142;2023-01-29T05:29:17;100345.88;;;-0.83;100.00
18987;BME280;9627;59.236;18.142;2023-01-29T05:31:44;100329.03;;;-0.79;100.00
18987;BME280;9627;59.236;18.142;2023-01-29T05:34:13;100336.50;;;-0.75;100.00
18987;BME280;9627;59.236;18.142;2023-01-29T05:36:40;100325.25;;;-0.75;100.00
18987;BME280;9627;59.236;18.142;2023-01-29T05:39:07;100328.06;;;-0.67;100.00
18987;BME280;9627;59.236;18.142;2023-01-29T05:41:34;100321.09;;;-0.67;100.00
18987;BME280;9627;59.236;18.142;2023-01-29T05:44:01;100311.47;;;-0.66;100.00
18987;BME280;9627;59.236;18.142;2023-01-29T05:46:28;100308.28;;;-0.70;100.00
18987;BME280;9627;59.236;18.142;2023-01-29T05:48:55;100305.69;;;-0.70;100.00
18987;BME280;9627;59.236;18.142;2023-01-29T05:51:23;100314.19;;;-0.68;100.00
18987;BME280;9627;59.236;18.142;2023-01-29T05:53:50;100295.50;;;-0.73;100.00
18987;BME280;9627;59.236;18.142;2023-01-29T05:56:17;100294.41;;;-0.70;100.00
18987;BME280;9627;59.236;18.142;2023-01-29T05:58:44;100296.22;;;-0.71;100.00
18987;BME280;9627;59.236;18.142;2023-01-29T06:01:12;100291.00;;;-0.71;100.00
18987;BME280;9627;59.236;18.142;2023-01-29T06:03:40;100298.25;;;-0.74;100.00
18987;BME280;9627;59.236;18.142;2023-01-29T06:06:07;100283.81;;;-0.78;100.00
18987;BME280;9627;59.236;18.142;2023-01-29T06:08:36;100273.13;;;-0.75;100.00
18987;BME280;9627;59.236;18.142;2023-01-29T06:11:05;100264.72;;;-0.79;100.00
18987;BME280;9627;59.236;18.142;2023-01-29T06:13:33;100264.22;;;-0.73;100.00
18987;BME280;9627;59.236;18.142;2023-01-29T06:16:00;100267.31;;;-0.79;100.00
18987;BME280;9627;59.236;18.142;2023-01-29T06:18:29;100270.63;;;-0.77;100.00
18987;BME280;9627;59.236;18.142;2023-01-29T06:20:58;100274.66;;;-0.73;100.00
18987;BME280;9627;59.236;18.142;2023-01-29T06:23:25;100265.88;;;-0.72;100.00
18987;BME280;9627;59.236;18.142;2023-01-29T06:25:57;100271.09;;;-0.72;100.00
18987;BME280;9627;59.236;18.142;2023-01-29T06:28:24;100265.38;;;-0.66;100.00
18987;BME280;9627;59.236;18.142;2023-01-29T06:30:51;100276.38;;;-0.62;100.00
18987;BME280;9627;59.236;18.142;2023-01-29T06:33:18;100288.34;;;-0.60;100.00
18987;BME280;9627;59.236;18.142;2023-01-29T06:35:45;100301.13;;;-0.57;100.00
18987;BME280;9627;59.236;18.142;2023-01-29T06:38:12;100299.34;;;-0.56;100.00
18987;BME280;9627;59.236;18.142;2023-01-29T06:40:39;100287.28;;;-0.57;100.00
18987;BME280;9627;59.236;18.142;2023-01-29T06:43:07;100295.69;;;-0.54;100.00
18987;BME280;9627;59.236;18.142;2023-01-29T06:45:34;100278.94;;;-0.51;100.00
18987;BME280;9627;59.236;18.142;2023-01-29T06:48:02;100273.72;;;-0.51;100.00
18987;BME280;9627;59.236;18.142;2023-01-29T06:50:29;100258.47;;;-0.56;100.00
18987;BME280;9627;59.236;18.142;2023-01-29T06:52:56;100256.72;;;-0.55;100.00
18987;BME280;9627;59.236;18.142;2023-01-29T06:55:24;100260.69;;;-0.51;100.00
18987;BME280;9627;59.236;18.142;2023-01-29T06:57:51;100250.25;;;-0.51;100.00
18987;BME280;9627;59.236;18.142;2023-01-29T07:00:20;100248.50;;;-0.51;100.00
18987;BME280;9627;59.236;18.142;2023-01-29T07:02:47;100249.19;;;-0.49;100.00
18987;BME280;9627;59.236;18.142;2023-01-29T07:05:14;100248.13;;;-0.46;100.00
18987;BME280;9627;59.236;18.142;2023-01-29T07:07:41;100237.94;;;-0.49;100.00
18987;BME280;9627;59.236;18.142;2023-01-29T07:10:09;100235.47;;;-0.51;100.00
18987;BME280;9627;59.236;18.142;2023-01-29T07:12:36;100218.28;;;-0.53;100.00
18987;BME280;9627;59.236;18.142;2023-01-29T07:15:03;100210.97;;;-0.59;100.00
18987;BME280;9627;59.236;18.142;2023-01-29T07:17:32;100215.50;;;-0.61;100.00
18987;BME280;9627;59.236;18.142;2023-01-29T07:19:59;100209.81;;;-0.66;100.00
18987;BME280;9627;59.236;18.142;2023-01-29T07:22:26;100211.63;;;-0.67;100.00
18987;BME280;9627;59.236;18.142;2023-01-29T07:24:53;100201.63;;;-0.62;100.00
18987;BME280;9627;59.236;18.142;2023-01-29T07:27:20;100200.16;;;-0.55;100.00
18987;BME280;9627;59.236;18.142;2023-01-29T07:29:47;100193.31;;;-0.56;100.00
18987;BME280;9627;59.236;18.142;2023-01-29T07:32:14;100182.59;;;-0.53;100.00
18987;BME280;9627;59.236;18.142;2023-01-29T07:34:43;100183.00;;;-0.57;100.00
18987;BME280;9627;59.236;18.142;2023-01-29T07:37:10;100177.53;;;-0.54;100.00
18987;BME280;9627;59.236;18.142;2023-01-29T07:39:37;100180.56;;;-0.49;100.00
18987;BME280;9627;59.236;18.142;2023-01-29T07:42:04;100169.97;;;-0.37;100.00
18987;BME280;9627;59.236;18.142;2023-01-29T07:44:31;100167.28;;;-0.26;100.00
18987;BME280;9627;59.236;18.142;2023-01-29T07:46:58;100157.97;;;-0.19;100.00
18987;BME280;9627;59.236;18.142;2023-01-29T07:49:25;100158.28;;;-0.12;100.00
18987;BME280;9627;59.236;18.142;2023-01-29T07:51:53;100155.28;;;-0.08;100.00
18987;BME280;9627;59.236;18.142;2023-01-29T07:54:20;100167.09;;;-0.04;100.00
18987;BME280;9627;59.236;18.142;2023-01-29T07:56:47;100157.94;;;0.02;100.00
18987;BME280;9627;59.236;18.142;2023-01-29T07:59:14;100156.84;;;0.05;100.00
18987;BME280;9627;59.236;18.142;2023-01-29T08:01:41;100137.50;;;0.07;100.00
18987;BME280;9627;59.236;18.142;2023-01-29T08:04:08;100138.91;;;0.11;100.00
18987;BME280;9627;59.236;18.142;2023-01-29T08:06:35;100134.09;;;0.16;100.00
18987;BME280;9627;59.236;18.142;2023-01-29T08:09:04;100124.75;;;0.14;100.00
18987;BME280;9627;59.236;18.142;2023-01-29T08:11:32;100115.00;;;0.16;100.00
18987;BME280;9627;59.236;18.142;2023-01-29T08:13:59;100108.00;;;0.16;100.00
18987;BME280;9627;59.236;18.142;2023-01-29T08:16:26;100111.31;;;0.18;100.00
18987;BME280;9627;59.236;18.142;2023-01-29T08:18:53;100100.72;;;0.20;100.00
18987;BME280;9627;59.236;18.142;2023-01-29T08:21:20;100106.38;;;0.25;100.00
18987;BME280;9627;59.236;18.142;2023-01-29T08:23:47;100096.75;;;0.25;100.00
18987;BME280;9627;59.236;18.142;2023-01-29T08:26:16;100082.63;;;0.28;100.00
18987;BME280;9627;59.236;18.142;2023-01-29T08:28:43;100087.84;;;0.28;100.00
18987;BME280;9627;59.236;18.142;2023-01-29T08:31:13;100077.94;;;0.31;100.00
18987;BME280;9627;59.236;18.142;2023-01-29T08:33:40;100083.59;;;0.36;100.00
18987;BME280;9627;59.236;18.142;2023-01-29T08:36:08;100067.34;;;0.33;100.00
18987;BME280;9627;59.236;18.142;2023-01-29T08:38:35;100076.72;;;0.45;100.00
18987;BME280;9627;59.236;18.142;2023-01-29T08:41:02;100075.50;;;0.49;100.00
18987;BME280;9627;59.236;18.142;2023-01-29T08:43:30;100069.06;;;0.53;100.00
18987;BME280;9627;59.236;18.142;2023-01-29T08:45:59;100081.56;;;0.59;100.00
18987;BME280;9627;59.236;18.142;2023-01-29T08:48:26;100070.69;;;0.54;100.00
18987;BME280;9627;59.236;18.142;2023-01-29T08:50:55;100078.81;;;0.51;100.00
18987;BME280;9627;59.236;18.142;2023-01-29T08:53:22;100084.44;;;0.56;100.00
18987;BME280;9627;59.236;18.142;2023-01-29T08:55:50;100072.63;;;0.61;100.00
18987;BME280;9627;59.236;18.142;2023-01-29T08:58:17;100053.53;;;0.61;100.00
18987;BME280;9627;59.236;18.142;2023-01-29T09:00:46;100038.13;;;0.77;100.00
18987;BME280;9627;59.236;18.142;2023-01-29T09:03:13;100037.28;;;0.76;100.00
18987;BME280;9627;59.236;18.142;2023-01-29T09:05:40;100042.38;;;0.87;100.00
18987;BME280;9627;59.236;18.142;2023-01-29T09:08:07;100041.25;;;1.09;100.00
18987;BME280;9627;59.236;18.142;2023-01-29T09:10:35;100040.94;;;1.31;100.00
18987;BME280;9627;59.236;18.142;2023-01-29T09:13:02;100044.97;;;1.16;100.00
18987;BME280;9627;59.236;18.142;2023-01-29T09:15:29;100037.38;;;1.13;100.00
18987;BME280;9627;59.236;18.142;2023-01-29T09:17:58;100034.09;;;1.02;100.00
18987;BME280;9627;59.236;18.142;2023-01-29T09:20:28;100022.03;;;0.91;100.00
18987;BME280;9627;59.236;18.142;2023-01-29T09:22:55;100012.13;;;0.94;100.00
18987;BME280;9627;59.236;18.142;2023-01-29T09:25:23;100001.13;;;0.91;100.00
18987;BME280;9627;59.236;18.142;2023-01-29T09:27:50;100002.50;;;0.95;100.00
18987;BME280;9627;59.236;18.142;2023-01-29T09:30:17;100004.66;;;1.00;100.00
18987;BME280;9627;59.236;18.142;2023-01-29T09:32:44;100014.59;;;0.96;100.00
18987;BME280;9627;59.236;18.142;2023-01-29T09:35:13;100024.34;;;0.94;100.00
18987;BME280;9627;59.236;18.142;2023-01-29T09:37:40;100020.78;;;0.95;100.00
18987;BME280;9627;59.236;18.142;2023-01-29T09:40:08;100011.28;;;0.94;100.00
18987;BME280;9627;59.236;18.142;2023-01-29T09:42:47;99993.28;;;0.91;100.00
18987;BME280;9627;59.236;18.142;2023-01-29T09:45:18;99979.34;;;1.10;100.00
18987;BME280;9627;59.236;18.142;2023-01-29T09:47:48;99979.03;;;1.22;100.00
18987;BME280;9627;59.236;18.142;2023-01-29T09:50:18;99983.00;;;1.26;100.00
18987;BME280;9627;59.236;18.142;2023-01-29T09:52:48;99977.06;;;1.34;100.00
18987;BME280;9627;59.236;18.142;2023-01-29T09:55:19;99967.47;;;1.25;100.00
18987;BME280;9627;59.236;18.142;2023-01-29T09:57:48;99967.59;;;1.23;100.00
18987;BME280;9627;59.236;18.142;2023-01-29T10:00:17;99958.56;;;1.18;100.00
18987;BME280;9627;59.236;18.142;2023-01-29T10:02:51;99949.31;;;1.23;100.00
18987;BME280;9627;59.236;18.142;2023-01-29T10:05:26;99954.25;;;1.26;100.00
18987;BME280;9627;59.236;18.142;2023-01-29T10:08:02;99954.53;;;1.23;100.00
18987;BME280;9627;59.236;18.142;2023-01-29T10:10:33;99958.09;;;1.22;100.00
18987;BME280;9627;59.236;18.142;2023-01-29T10:13:06;99952.41;;;1.36;100.00
18987;BME280;9627;59.236;18.142;2023-01-29T10:15:40;99933.88;;;1.20;100.00
18987;BME280;9627;59.236;18.142;2023-01-29T10:18:19;99937.16;;;1.32;100.00
18987;BME280;9627;59.236;18.142;2023-01-29T10:20:54;99925.06;;;1.31;100.00
18987;BME280;9627;59.236;18.142;2023-01-29T10:23:29;99929.50;;;1.48;100.00
18987;BME280;9627;59.236;18.142;2023-01-29T10:25:57;99932.66;;;1.51;100.00
18987;BME280;9627;59.236;18.142;2023-01-29T10:28:26;99915.50;;;1.66;100.00
18987;BME280;9627;59.236;18.142;2023-01-29T10:30:55;99926.94;;;1.65;100.00
18987;BME280;9627;59.236;18.142;2023-01-29T10:33:24;99923.13;;;1.77;100.00
18987;BME280;9627;59.236;18.142;2023-01-29T10:35:57;99915.84;;;1.81;100.00
18987;BME280;9627;59.236;18.142;2023-01-29T10:38:40;99913.53;;;1.96;100.00
18987;BME280;9627;59.236;18.142;2023-01-29T10:41:18;99906.84;;;1.83;100.00
18987;BME280;9627;59.236;18.142;2023-01-29T10:43:50;99898.13;;;1.93;100.00
18987;BME280;9627;59.236;18.142;2023-01-29T10:46:22;99885.16;;;1.91;100.00
18987;BME280;9627;59.236;18.142;2023-01-29T10:48:56;99888.53;;;2.01;100.00
18987;BME280;9627;59.236;18.142;2023-01-29T10:51:39;99882.41;;;2.10;100.00
18987;BME280;9627;59.236;18.142;2023-01-29T10:54:21;99886.22;;;2.33;100.00
18987;BME280;9627;59.236;18.142;2023-01-29T10:56:56;99868.97;;;2.48;100.00
18987;BME280;9627;59.236;18.142;2023-01-29T10:59:34;99865.41;;;2.32;100.00
18987;BME280;9627;59.236;18.142;2023-01-29T11:02:07;99866.50;;;2.04;100.00
18987;BME280;9627;59.236;18.142;2023-01-29T11:04:39;99870.38;;;2.17;100.00
18987;BME280;9627;59.236;18.142;2023-01-29T11:07:08;99853.47;;;1.94;100.00
18987;BME280;9627;59.236;18.142;2023-01-29T11:09:36;99849.72;;;1.97;100.00
18987;BME280;9627;59.236;18.142;2023-01-29T11:12:08;99851.75;;;2.03;100.00
18987;BME280;9627;59.236;18.142;2023-01-29T11:14:38;99838.72;;;2.11;100.00
18987;BME280;9627;59.236;18.142;2023-01-29T11:17:13;99834.75;;;2.07;100.00
18987;BME280;9627;59.236;18.142;2023-01-29T11:19:41;99827.56;;;2.26;100.00
18987;BME280;9627;59.236;18.142;2023-01-29T11:22:14;99825.78;;;2.27;100.00
18987;BME280;9627;59.236;18.142;2023-01-29T11:24:41;99820.88;;;2.32;100.00
18987;BME280;9627;59.236;18.142;2023-01-29T11:27:14;99806.09;;;2.23;100.00
18987;BME280;9627;59.236;18.142;2023-01-29T11:29:47;99800.91;;;2.31;100.00
18987;BME280;9627;59.236;18.142;2023-01-29T11:32:23;99791.63;;;2.36;100.00
18987;BME280;9627;59.236;18.142;2023-01-29T11:35:00;99788.06;;;2.20;100.00
18987;BME280;9627;59.236;18.142;2023-01-29T11:37:33;99775.34;;;2.25;100.00
18987;BME280;9627;59.236;18.142;2023-01-29T11:40:00;99764.78;;;2.34;100.00
18987;BME280;9627;59.236;18.142;2023-01-29T11:42:29;99745.09;;;2.30;100.00
18987;BME280;9627;59.236;18.142;2023-01-29T11:44:56;99741.78;;;2.54;100.00
18987;BME280;9627;59.236;18.142;2023-01-29T11:47:25;99744.38;;;2.54;100.00
18987;BME280;9627;59.236;18.142;2023-01-29T11:49:53;99737.13;;;2.73;100.00
18987;BME280;9627;59.236;18.142;2023-01-29T11:52:20;99722.81;;;2.60;100.00
18987;BME280;9627;59.236;18.142;2023-01-29T11:54:51;99716.97;;;2.74;100.00
18987;BME280;9627;59.236;18.142;2023-01-29T11:57:28;99721.66;;;2.54;100.00
18987;BME280;9627;59.236;18.142;2023-01-29T11:59:57;99704.75;;;2.49;100.00
18987;BME280;9627;59.236;18.142;2023-01-29T12:02:27;99693.66;;;2.55;100.00
18987;BME280;9627;59.236;18.142;2023-01-29T12:04:58;99688.34;;;2.39;100.00
18987;BME280;9627;59.236;18.142;2023-01-29T12:07:26;99685.56;;;2.40;100.00
18987;BME280;9627;59.236;18.142;2023-01-29T12:09:56;99682.47;;;2.45;100.00
18987;BME280;9627;59.236;18.142;2023-01-29T12:12:28;99671.38;;;2.51;100.00
18987;BME280;9627;59.236;18.142;2023-01-29T12:15:05;99664.47;;;2.50;100.00
18987;BME280;9627;59.236;18.142;2023-01-29T12:17:40;99646.88;;;2.68;100.00
18987;BME280;9627;59.236;18.142;2023-01-29T12:20:10;99639.81;;;2.60;100.00
18987;BME280;9627;59.236;18.142;2023-01-29T12:22:40;99636.19;;;2.61;100.00
18987;BME280;9627;59.236;18.142;2023-01-29T12:25:15;99637.66;;;2.56;100.00
18987;BME280;9627;59.236;18.142;2023-01-29T12:27:45;99631.09;;;2.52;100.00
18987;BME280;9627;59.236;18.142;2023-01-29T12:30:14;99634.00;;;2.41;100.00
18987;BME280;9627;59.236;18.142;2023-01-29T12:32:43;99626.28;;;2.31;100.00
18987;BME280;9627;59.236;18.142;2023-01-29T12:35:15;99618.75;;;2.28;100.00
18987;BME280;9627;59.236;18.142;2023-01-29T12:37:44;99603.53;;;2.32;100.00
18987;BME280;9627;59.236;18.142;2023-01-29T12:40:16;99596.63;;;2.23;100.00
18987;BME280;9627;59.236;18.142;2023-01-29T12:42:45;99601.69;;;2.24;100.00
18987;BME280;9627;59.236;18.142;2023-01-29T12:45:15;99596.44;;;2.16;100.00
18987;BME280;9627;59.236;18.142;2023-01-29T12:47:44;99587.63;;;2.17;100.00
18987;BME280;9627;59.236;18.142;2023-01-29T12:50:13;99579.75;;;2.17;100.00
18987;BME280;9627;59.236;18.142;2023-01-29T12:52:41;99582.88;;;2.21;100.00
18987;BME280;9627;59.236;18.142;2023-01-29T12:55:12;99573.72;;;2.25;100.00
18987;BME280;9627;59.236;18.142;2023-01-29T12:57:44;99562.47;;;2.32;100.00
18987;BME280;9627;59.236;18.142;2023-01-29T13:00:13;99557.22;;;2.40;100.00